Time;durP1;ratioP1;P1;durP2;ratioP2;P2;SDS_P1;SDS_P2;PMS_P1;PMS_P2;Temp;Humidity;BMP_temperature;BMP_pressure;BME280_temperature;BME280_humidity;BME280_pressure;Samples;Min_cycle;Max_cycle;Signal;HPM_P1;HPM_P2
2023/01/07 00:01:34;;;;;;;16.98;3.85;;;11.70;99.90;;;;;;4999492;28;20061;-44
2023/01/07 00:04:01;;;;;;;13.68;3.28;;;11.70;99.90;;;;;;5012714;28;20504;-48
2023/01/07 00:06:29;;;;;;;12.43;3.42;;;11.80;99.90;;;;;;5012588;28;20116;-44
2023/01/07 00:08:56;;;;;;;15.57;3.17;;;11.80;99.90;;;;;;5012778;28;20025;-45
2023/01/07 00:11:34;;;;;;;9.77;2.67;;;11.80;99.90;;;;;;5012504;28;20049;-48
2023/01/07 00:14:00;;;;;;;13.05;3.17;;;11.80;99.90;;;;;;5012576;28;20081;-56
2023/01/07 00:16:29;;;;;;;13.30;3.40;;;11.80;99.90;;;;;;5012334;28;20032;-45
2023/01/07 00:18:55;;;;;;;13.85;3.05;;;11.80;99.90;;;;;;5012400;28;20576;-47
2023/01/07 00:21:23;;;;;;;16.23;3.05;;;11.80;99.90;;;;;;5012223;28;20041;-50
2023/01/07 00:23:52;;;;;;;16.65;2.97;;;11.80;99.90;;;;;;5012371;28;20444;-54
2023/01/07 00:26:20;;;;;;;9.07;2.72;;;11.80;99.90;;;;;;5012156;28;20028;-45
2023/01/07 00:28:48;;;;;;;11.70;2.50;;;11.80;99.90;;;;;;5008614;28;20061;-51
2023/01/07 00:31:34;;;;;;;12.98;2.67;;;11.80;99.90;;;;;;5006630;28;20048;-46
2023/01/07 00:36:28;;;;;;;10.90;2.80;;;11.80;99.90;;;;;;5012043;28;20025;-46
2023/01/07 00:39:01;;;;;;;10.20;2.72;;;11.80;99.90;;;;;;4994542;28;20032;-46
2023/01/07 00:41:27;;;;;;;10.88;2.70;;;11.80;99.90;;;;;;5011844;28;20038;-47
2023/01/07 00:43:53;;;;;;;12.10;2.83;;;11.80;99.90;;;;;;5012137;28;20033;-46
2023/01/07 00:46:20;;;;;;;10.63;3.25;;;11.80;99.90;;;;;;5011959;28;20489;-46
2023/01/07 00:48:46;;;;;;;12.75;3.13;;;11.80;99.90;;;;;;5011997;28;20033;-59
2023/01/07 00:51:14;;;;;;;10.60;2.92;;;11.80;99.90;;;;;;5012094;28;20083;-47
2023/01/07 00:53:40;;;;;;;13.30;3.15;;;11.80;99.90;;;;;;5012034;28;20022;-51
2023/01/07 00:56:06;;;;;;;11.82;3.10;;;11.80;99.90;;;;;;5012012;28;20018;-49
2023/01/07 00:58:31;;;;;;;12.43;2.83;;;11.80;99.90;;;;;;5011485;28;20083;-46
2023/01/07 01:01:00;;;;;;;19.90;3.67;;;11.70;99.90;;;;;;5011492;28;20045;-47
2023/01/07 01:03:26;;;;;;;13.70;3.10;;;11.70;99.90;;;;;;5011678;28;20492;-49
2023/01/07 01:05:53;;;;;;;14.52;3.10;;;11.70;99.90;;;;;;5011312;28;20025;-51
2023/01/07 01:08:20;;;;;;;17.15;3.00;;;11.70;99.90;;;;;;5011610;28;20038;-49
2023/01/07 01:10:46;;;;;;;15.07;2.60;;;11.70;99.90;;;;;;5011524;28;20061;-52
2023/01/07 01:13:14;;;;;;;14.02;2.97;;;11.60;99.90;;;;;;4978077;28;20049;-45
2023/01/07 01:15:44;;;;;;;10.23;2.47;;;11.60;99.90;;;;;;4991690;28;20034;-51
2023/01/07 01:18:10;;;;;;;14.77;3.20;;;11.60;99.90;;;;;;4991643;28;20505;-46
2023/01/07 01:20:36;;;;;;;11.77;2.58;;;11.60;99.90;;;;;;4982780;28;20048;-47
2023/01/07 01:23:02;;;;;;;13.10;2.85;;;11.60;99.90;;;;;;4988068;28;20035;-48
2023/01/07 01:25:28;;;;;;;14.90;2.83;;;11.50;99.90;;;;;;4974233;28;20026;-46
2023/01/07 01:27:53;;;;;;;8.88;2.40;;;11.50;99.90;;;;;;4991193;28;20074;-51
2023/01/07 01:30:19;;;;;;;13.90;2.88;;;11.50;99.90;;;;;;4991495;28;20033;-47
2023/01/07 01:32:44;;;;;;;15.45;3.40;;;11.40;99.90;;;;;;4991520;28;20441;-49
2023/01/07 01:35:10;;;;;;;16.55;2.97;;;11.50;99.90;;;;;;4991182;28;20065;-48
2023/01/07 01:37:36;;;;;;;11.15;2.90;;;11.50;99.90;;;;;;4991382;28;20073;-50
2023/01/07 01:40:02;;;;;;;10.25;2.60;;;11.50;99.90;;;;;;4991254;28;20027;-45
2023/01/07 01:42:29;;;;;;;15.45;2.67;;;11.50;99.90;;;;;;4991459;28;20061;-48
2023/01/07 01:45:00;;;;;;;9.75;2.50;;;11.50;99.90;;;;;;4991305;28;20029;-49
2023/01/07 01:47:40;;;;;;;13.90;2.75;;;11.50;99.90;;;;;;4991570;28;20030;-45
2023/01/07 01:50:37;;;;;;;11.43;2.83;;;11.50;99.90;;;;;;4992257;28;20277;-46
2023/01/07 01:53:08;;;;;;;13.40;2.50;;;11.60;99.90;;;;;;4987297;28;20018;-45
2023/01/07 01:55:42;;;;;;;16.73;2.72;;;11.50;99.90;;;;;;4989102;28;20023;-45
2023/01/07 01:58:16;;;;;;;18.27;3.05;;;11.50;99.90;;;;;;4986552;28;20076;-45
2023/01/07 02:00:42;;;;;;;14.48;3.00;;;11.50;99.90;;;;;;4991441;28;20308;-46
2023/01/07 02:03:10;;;;;;;12.32;2.78;;;11.50;99.90;;;;;;4981986;28;20029;-47
2023/01/07 02:05:39;;;;;;;11.93;2.60;;;11.50;99.90;;;;;;4987257;28;20027;-48
2023/01/07 02:08:05;;;;;;;14.88;3.03;;;11.50;99.90;;;;;;4990766;28;20373;-51
2023/01/07 02:10:32;;;;;;;13.77;3.50;;;11.40;99.90;;;;;;4988146;28;20141;-47
2023/01/07 02:13:51;;;;;;;9.63;2.25;;;11.30;99.90;;;;;;4990900;28;20014;-48
2023/01/07 02:16:42;;;;;;;13.50;2.97;;;11.30;99.90;;;;;;4911383;29;20047;-52
2023/01/07 02:19:38;;;;;;;12.85;2.53;;;11.20;99.90;;;;;;4982677;28;20470;-47
2023/01/07 02:22:10;;;;;;;18.63;3.58;;;11.30;99.90;;;;;;4994805;28;20031;-48
2023/01/07 02:25:02;;;;;;;13.40;3.15;;;11.30;99.90;;;;;;4994546;28;20026;-48
2023/01/07 02:27:33;;;;;;;12.18;2.92;;;11.40;99.90;;;;;;4985970;28;20060;-47
2023/01/07 02:30:18;;;;;;;14.38;3.15;;;11.40;99.90;;;;;;4994745;28;20022;-48
2023/01/07 02:33:16;;;;;;;12.75;2.92;;;11.40;99.90;;;;;;4994710;28;20026;-53
2023/01/07 02:35:55;;;;;;;10.35;2.63;;;11.40;99.90;;;;;;4957901;28;20041;-49
2023/01/07 02:38:26;;;;;;;16.05;2.72;;;11.40;99.90;;;;;;4994478;28;20347;-47
2023/01/07 02:41:15;;;;;;;11.93;2.97;;;11.40;99.90;;;;;;4984103;28;20066;-46
2023/01/07 02:44:03;;;;;;;10.48;2.95;;;11.40;99.90;;;;;;4994255;28;20080;-51
2023/01/07 02:47:08;;;;;;;9.87;2.83;;;11.40;99.90;;;;;;4994454;28;20105;-45
2023/01/07 02:49:34;;;;;;;12.23;2.65;;;11.30;99.90;;;;;;5000955;28;20045;-45
2023/01/07 02:52:28;;;;;;;9.63;2.90;;;11.40;99.90;;;;;;4996973;28;20026;-48
2023/01/07 02:55:03;;;;;;;14.85;3.70;;;11.30;99.90;;;;;;4991171;28;20043;-51
2023/01/07 02:57:34;;;;;;;15.45;2.72;;;11.30;99.90;;;;;;4994225;28;20105;-49
2023/01/07 03:00:08;;;;;;;16.63;3.22;;;11.30;99.90;;;;;;4994328;28;20033;-49
2023/01/07 03:03:02;;;;;;;15.40;2.67;;;11.30;99.90;;;;;;5009508;28;20042;-46
2023/01/07 03:05:55;;;;;;;11.10;2.90;;;11.40;99.90;;;;;;5013343;28;20022;-48
2023/01/07 03:08:39;;;;;;;12.32;2.58;;;11.30;99.90;;;;;;4989681;28;20068;-49
2023/01/07 03:11:08;;;;;;;11.23;2.85;;;11.30;99.90;;;;;;5013274;28;20421;-47
2023/01/07 03:13:47;;;;;;;5.35;2.20;;;11.30;99.90;;;;;;5005269;28;20038;-47
2023/01/07 03:16:19;;;;;;;;;;;11.30;99.90;;;;;;4994263;28;20022;-52
2023/01/07 03:18:55;;;;;;;9.25;2.08;;;11.30;99.90;;;;;;4993679;28;19905;-51
2023/01/07 03:21:23;;;;;;;9.85;2.55;;;11.20;99.90;;;;;;4993576;28;20532;-50
2023/01/07 03:23:55;;;;;;;9.15;2.50;;;11.20;99.90;;;;;;4993739;28;20027;-47
2023/01/07 03:26:25;;;;;;;9.18;2.30;;;11.20;99.90;;;;;;4993677;28;20023;-47
2023/01/07 03:28:52;;;;;;;12.65;2.53;;;11.30;99.90;;;;;;4992307;28;20058;-47
2023/01/07 03:31:20;;;;;;;10.05;1.85;;;11.20;99.90;;;;;;4993621;28;20486;-46
2023/01/07 03:33:55;;;;;;;11.88;2.70;;;11.20;99.90;;;;;;4993540;28;20134;-49
2023/01/07 03:36:26;;;;;;;12.77;2.85;;;11.20;99.90;;;;;;4993820;28;20081;-48
2023/01/07 03:38:54;;;;;;;10.73;2.63;;;11.10;99.90;;;;;;4993575;28;20031;-45
2023/01/07 03:44:04;;;;;;;10.43;2.58;;;11.20;99.90;;;;;;4993525;28;20121;-46
2023/01/07 03:46:32;;;;;;;9.73;2.83;;;11.20;99.90;;;;;;4993541;28;20117;-47
2023/01/07 03:48:57;;;;;;;10.57;2.38;;;11.10;99.90;;;;;;4993380;28;20030;-51
2023/01/07 03:51:23;;;;;;;16.35;2.95;;;11.10;99.90;;;;;;4993420;28;20033;-48
2023/01/07 03:53:48;;;;;;;13.48;2.42;;;11.10;99.90;;;;;;4993492;28;20049;-54
2023/01/07 03:56:14;;;;;;;14.65;2.88;;;11.10;99.90;;;;;;4992891;28;20397;-45
2023/01/07 03:58:40;;;;;;;16.23;3.17;;;11.10;99.90;;;;;;4993264;28;20061;-47
2023/01/07 04:01:05;;;;;;;9.30;2.55;;;11.10;99.90;;;;;;4992990;28;20048;-50
2023/01/07 04:03:31;;;;;;;9.15;1.95;;;11.10;99.90;;;;;;4993417;28;20055;-46
2023/01/07 04:05:56;;;;;;;9.95;2.00;;;11.10;99.90;;;;;;4993130;28;20023;-47
2023/01/07 04:08:22;;;;;;;12.18;2.50;;;11.10;99.90;;;;;;4992989;28;20168;-48
2023/01/07 04:10:47;;;;;;;13.00;2.47;;;11.10;99.90;;;;;;4992832;28;20053;-49
2023/01/07 04:13:13;;;;;;;9.68;2.50;;;11.10;99.90;;;;;;4992803;28;20085;-53
2023/01/07 04:15:39;;;;;;;16.10;3.22;;;11.10;99.90;;;;;;4992932;28;20037;-48
2023/01/07 04:18:05;;;;;;;9.23;2.22;;;11.00;99.90;;;;;;4992424;28;20030;-50
2023/01/07 04:20:31;;;;;;;10.55;2.88;;;11.10;99.90;;;;;;4980002;28;20026;-54
2023/01/07 04:22:56;;;;;;;11.25;2.63;;;11.10;99.90;;;;;;4975125;28;20080;-50
2023/01/07 04:25:22;;;;;;;11.50;3.45;;;11.00;99.90;;;;;;4992465;28;20382;-45
2023/01/07 04:27:47;;;;;;;8.75;2.70;;;11.10;99.90;;;;;;4992567;28;20050;-46
2023/01/07 04:30:13;;;;;;;11.95;2.38;;;11.10;99.90;;;;;;4992630;28;20022;-47
2023/01/07 04:32:39;;;;;;;15.52;2.53;;;11.00;99.90;;;;;;4992910;28;20058;-46
2023/01/07 04:35:04;;;;;;;15.18;2.88;;;11.00;99.90;;;;;;4992556;28;20519;-48
2023/01/07 04:37:30;;;;;;;15.02;2.20;;;11.00;99.90;;;;;;4992471;28;20030;-45
2023/01/07 04:39:56;;;;;;;11.30;2.67;;;11.00;99.90;;;;;;4991850;28;20386;-45
2023/01/07 04:42:21;;;;;;;16.02;2.95;;;11.00;99.90;;;;;;4992262;28;20038;-49
2023/01/07 04:44:47;;;;;;;13.43;2.53;;;11.00;99.90;;;;;;4992459;28;20034;-46
2023/01/07 04:47:13;;;;;;;6.25;1.80;;;11.00;99.90;;;;;;4992298;28;20062;-49
2023/01/07 04:49:38;;;;;;;14.45;2.22;;;11.00;99.90;;;;;;4992353;28;20049;-51
2023/01/07 04:52:04;;;;;;;12.55;2.65;;;11.00;99.90;;;;;;4974921;28;20030;-45
2023/01/07 04:54:30;;;;;;;12.32;2.53;;;11.00;99.90;;;;;;4991970;28;20441;-53
2023/01/07 04:56:55;;;;;;;9.18;2.30;;;11.00;99.90;;;;;;4992094;28;20496;-51
2023/01/07 04:59:21;;;;;;;10.48;2.20;;;11.00;99.90;;;;;;4992058;28;20101;-48
2023/01/07 05:01:47;;;;;;;9.20;2.53;;;11.00;99.90;;;;;;4992389;28;20129;-46
2023/01/07 05:04:12;;;;;;;8.75;2.28;;;11.00;99.90;;;;;;4991919;28;20054;-50
2023/01/07 05:06:38;;;;;;;11.60;2.28;;;10.90;99.90;;;;;;4992101;28;20385;-47
2023/01/07 05:09:04;;;;;;;7.03;2.10;;;10.90;99.90;;;;;;4992032;28;20545;-46
2023/01/07 05:11:29;;;;;;;9.55;2.40;;;10.90;99.90;;;;;;4991623;28;20026;-56
2023/01/07 05:13:59;;;;;;;13.52;2.75;;;10.90;99.90;;;;;;4991912;28;20026;-44
2023/01/07 05:16:25;;;;;;;12.95;2.67;;;10.90;99.90;;;;;;4992002;28;20049;-49
2023/01/07 05:18:51;;;;;;;10.45;2.80;;;10.90;99.90;;;;;;4992439;28;20081;-48
2023/01/07 05:21:16;;;;;;;10.88;2.42;;;10.90;99.90;;;;;;4992558;28;20034;-55
2023/01/07 05:23:42;;;;;;;9.70;2.20;;;10.90;99.90;;;;;;4992466;28;20058;-47
2023/01/07 05:26:08;;;;;;;12.13;2.70;;;10.90;99.90;;;;;;4991590;28;20492;-44
2023/01/07 05:28:34;;;;;;;14.73;2.67;;;10.90;99.90;;;;;;4991540;28;20066;-50
2023/01/07 05:31:00;;;;;;;12.15;2.53;;;10.90;99.90;;;;;;4991656;28;20054;-47
2023/01/07 05:33:26;;;;;;;9.40;2.20;;;10.90;99.90;;;;;;4974143;28;20038;-48
2023/01/07 05:35:52;;;;;;;9.63;2.97;;;10.90;99.90;;;;;;4991591;28;20029;-45
2023/01/07 05:38:17;;;;;;;12.50;2.58;;;10.90;99.90;;;;;;4991620;28;20034;-44
2023/01/07 05:40:46;;;;;;;8.38;2.60;;;10.90;99.90;;;;;;4991179;28;20429;-48
2023/01/07 05:43:12;;;;;;;10.88;3.00;;;10.80;99.90;;;;;;4991390;28;20030;-47
2023/01/07 05:45:38;;;;;;;11.00;3.55;;;10.80;99.90;;;;;;4991602;28;20035;-52
2023/01/07 05:48:04;;;;;;;8.88;2.20;;;10.80;99.90;;;;;;4991248;28;20100;-47
2023/01/07 05:50:29;;;;;;;10.30;2.20;;;10.80;99.90;;;;;;4991334;28;20076;-45
2023/01/07 05:52:55;;;;;;;9.85;2.60;;;10.80;99.90;;;;;;4990711;28;20118;-46
2023/01/07 05:55:20;;;;;;;7.85;2.80;;;10.80;99.90;;;;;;4991033;28;20606;-48
2023/01/07 05:57:46;;;;;;;9.20;2.10;;;10.80;99.90;;;;;;4991157;28;20077;-50
2023/01/07 06:00:12;;;;;;;11.00;2.28;;;10.80;99.90;;;;;;4991185;28;20018;-53
2023/01/07 06:02:38;;;;;;;10.65;2.30;;;10.80;99.90;;;;;;4990965;28;20088;-48
2023/01/07 06:05:04;;;;;;;9.35;2.03;;;10.90;99.90;;;;;;4973874;28;20031;-48
2023/01/07 06:07:29;;;;;;;10.95;2.30;;;10.90;99.90;;;;;;4991093;28;20027;-48
2023/01/07 06:09:55;;;;;;;8.65;2.22;;;10.80;99.90;;;;;;4990944;28;20057;-49
2023/01/07 06:12:21;;;;;;;7.40;1.95;;;10.80;99.90;;;;;;4991073;28;20093;-45
2023/01/07 06:14:46;;;;;;;6.55;1.85;;;10.80;99.90;;;;;;4991199;28;20038;-44
2023/01/07 06:17:12;;;;;;;10.40;2.08;;;10.80;99.90;;;;;;4991156;28;20062;-52
2023/01/07 06:19:37;;;;;;;11.48;2.47;;;10.80;99.90;;;;;;4990878;28;20026;-47
2023/01/07 06:22:03;;;;;;;8.70;2.10;;;10.80;99.90;;;;;;4990894;28;20140;-48
2023/01/07 06:24:28;;;;;;;11.95;2.42;;;10.80;99.90;;;;;;4990943;28;20026;-51
2023/01/07 06:26:54;;;;;;;9.93;2.50;;;10.80;99.90;;;;;;4990624;28;20509;-45
2023/01/07 06:29:20;;;;;;;11.77;2.35;;;10.80;99.90;;;;;;4991193;28;20045;-48
2023/01/07 06:31:45;;;;;;;9.57;2.17;;;10.80;99.90;;;;;;4990981;28;20184;-45
2023/01/07 06:34:11;;;;;;;11.60;2.70;;;10.80;99.90;;;;;;4990952;28;20382;-49
2023/01/07 06:36:36;;;;;;;14.45;3.47;;;10.80;99.90;;;;;;4990945;28;20033;-52
2023/01/07 06:39:02;;;;;;;9.02;2.10;;;10.80;99.90;;;;;;4990660;28;20057;-47
2023/01/07 06:41:28;;;;;;;14.35;2.55;;;10.80;99.90;;;;;;4990684;28;20031;-45
2023/01/07 06:43:53;;;;;;;9.85;2.35;;;10.80;99.90;;;;;;4990839;28;20286;-47
2023/01/07 06:46:19;;;;;;;14.68;3.28;;;10.80;99.90;;;;;;4990878;28;20026;-45
2023/01/07 06:48:44;;;;;;;13.43;2.92;;;10.80;99.90;;;;;;4990976;28;20089;-46
2023/01/07 06:51:10;;;;;;;9.63;2.60;;;10.80;99.90;;;;;;4990849;28;20030;-50
2023/01/07 06:53:36;;;;;;;9.98;2.40;;;10.80;99.90;;;;;;4990884;28;20026;-51
2023/01/07 06:56:01;;;;;;;10.07;2.22;;;10.80;99.90;;;;;;4990156;28;20037;-47
2023/01/07 06:58:27;;;;;;;10.40;2.47;;;10.90;99.90;;;;;;4990613;28;20015;-45
2023/01/07 07:00:53;;;;;;;13.23;2.28;;;10.80;99.90;;;;;;4986372;28;20030;-50
2023/01/07 07:03:18;;;;;;;11.18;2.78;;;10.80;99.90;;;;;;4991136;28;20041;-48
2023/01/07 07:05:45;;;;;;;10.20;2.22;;;10.80;99.90;;;;;;4993905;28;20034;-47
2023/01/07 07:08:10;;;;;;;8.10;2.17;;;10.80;99.90;;;;;;4986365;28;20035;-54
2023/01/07 07:10:36;;;;;;;10.38;2.47;;;10.90;99.90;;;;;;4993506;28;20029;-49
2023/01/07 07:13:01;;;;;;;10.25;2.38;;;10.80;99.90;;;;;;4989299;28;20386;-49
2023/01/07 07:15:27;;;;;;;8.85;2.15;;;10.80;99.90;;;;;;4992936;28;20493;-51
2023/01/07 07:17:53;;;;;;;9.05;2.20;;;10.80;99.90;;;;;;4984969;28;20110;-45
2023/01/07 07:20:18;;;;;;;10.95;2.60;;;10.80;99.90;;;;;;4993938;28;20026;-46
2023/01/07 07:22:46;;;;;;;10.07;2.72;;;10.80;99.90;;;;;;4993672;28;20042;-46
2023/01/07 07:25:11;;;;;;;12.23;2.40;;;10.80;99.90;;;;;;4991750;28;20031;-47
2023/01/07 07:27:37;;;;;;;9.80;2.17;;;10.80;99.90;;;;;;4982174;28;20051;-47
2023/01/07 07:30:03;;;;;;;7.03;1.95;;;10.80;99.90;;;;;;4993442;28;20073;-45
2023/01/07 07:32:29;;;;;;;12.13;2.17;;;10.80;99.90;;;;;;4993596;28;20034;-57
2023/01/07 07:34:55;;;;;;;11.82;2.42;;;10.80;99.90;;;;;;4988791;28;20033;-47
2023/01/07 07:37:21;;;;;;;12.68;2.42;;;10.80;99.90;;;;;;4991981;28;20089;-46
2023/01/07 07:39:46;;;;;;;10.50;2.13;;;10.80;99.90;;;;;;4993607;28;20038;-45
2023/01/07 07:42:12;;;;;;;8.65;2.55;;;10.80;99.90;;;;;;4990433;28;20110;-47
2023/01/07 07:44:38;;;;;;;17.35;2.63;;;10.70;99.90;;;;;;4989942;28;20050;-51
2023/01/07 07:47:03;;;;;;;6.32;1.85;;;10.80;99.90;;;;;;4975885;28;20459;-49
2023/01/07 07:49:29;;;;;;;12.25;2.72;;;10.80;99.90;;;;;;4993100;28;20530;-46
2023/01/07 07:51:55;;;;;;;10.88;2.30;;;10.80;99.90;;;;;;4993415;28;20494;-49
2023/01/07 07:54:20;;;;;;;13.20;2.35;;;10.80;99.90;;;;;;4993022;28;20030;-46
2023/01/07 07:56:46;;;;;;;13.70;2.50;;;10.80;99.90;;;;;;4993302;28;20034;-49
2023/01/07 07:59:12;;;;;;;14.60;2.85;;;10.80;99.90;;;;;;4993022;28;20027;-46
2023/01/07 08:01:37;;;;;;;9.20;2.00;;;10.80;99.90;;;;;;4974682;28;20038;-50
2023/01/07 08:04:03;;;;;;;9.13;2.55;;;10.80;99.90;;;;;;4992716;28;20109;-50
2023/01/07 08:06:29;;;;;;;9.32;2.22;;;10.80;99.90;;;;;;4975647;28;20156;-48
2023/01/07 08:08:54;;;;;;;12.60;2.28;;;10.80;99.90;;;;;;4993041;28;20033;-46
2023/01/07 08:11:20;;;;;;;12.38;2.15;;;10.70;99.90;;;;;;4992765;28;20478;-52
2023/01/07 08:13:45;;;;;;;13.15;3.03;;;10.80;99.90;;;;;;4992716;28;20038;-49
2023/01/07 08:16:11;;;;;;;7.57;2.05;;;10.70;99.90;;;;;;4992120;28;20031;-50
2023/01/07 08:18:38;;;;;;;13.90;2.42;;;10.80;99.90;;;;;;4991234;28;20033;-47
2023/01/07 08:21:04;;;;;;;13.65;2.28;;;10.80;99.90;;;;;;4992200;28;20085;-47
2023/01/07 08:23:30;;;;;;;12.65;2.28;;;10.80;99.90;;;;;;4991222;28;20429;-49
2023/01/07 08:25:59;;;;;;;17.83;3.17;;;10.80;99.90;;;;;;4993047;28;20022;-51
2023/01/07 08:28:25;;;;;;;10.32;2.50;;;10.80;99.90;;;;;;4990878;28;20144;-53
2023/01/07 08:30:51;;;;;;;12.68;2.70;;;10.80;99.90;;;;;;4990532;28;20477;-44
2023/01/07 08:33:16;;;;;;;9.95;2.35;;;10.80;99.90;;;;;;4990808;28;20084;-49
2023/01/07 08:35:44;;;;;;;9.65;2.75;;;10.60;99.90;;;;;;4990655;28;20450;-52
2023/01/07 08:38:09;;;;;;;14.38;2.70;;;10.50;99.90;;;;;;4990650;28;20026;-52
2023/01/07 08:40:36;;;;;;;8.43;2.03;;;10.40;99.90;;;;;;4973149;28;20036;-52
2023/01/07 08:43:04;;;;;;;14.63;3.13;;;10.30;99.90;;;;;;4991088;28;20073;-44
2023/01/07 08:45:30;;;;;;;10.85;2.60;;;10.20;99.90;;;;;;4992445;28;20347;-48
2023/01/07 08:47:56;;;;;;;12.57;2.88;;;10.00;99.90;;;;;;4992586;28;20041;-44
2023/01/07 08:50:27;;;;;;;11.48;2.70;;;10.00;99.90;;;;;;4992682;28;20018;-48
2023/01/07 08:52:52;;;;;;;12.75;3.25;;;9.90;99.90;;;;;;4992732;28;20034;-45
2023/01/07 08:55:18;;;;;;;9.75;2.50;;;9.90;99.90;;;;;;4992797;28;20117;-45
2023/01/07 08:57:46;;;;;;;15.13;2.80;;;9.90;99.90;;;;;;4992479;28;20105;-45
2023/01/07 09:00:13;;;;;;;12.23;2.70;;;9.80;99.90;;;;;;4992241;28;20022;-45
2023/01/07 09:02:39;;;;;;;10.27;3.63;;;9.80;99.90;;;;;;4991889;28;20041;-46
2023/01/07 09:05:05;;;;;;;13.73;2.95;;;9.80;99.90;;;;;;4992129;28;20022;-52
2023/01/07 09:07:31;;;;;;;11.45;2.58;;;9.80;99.90;;;;;;4992105;28;20026;-45
2023/01/07 09:09:56;;;;;;;12.05;2.78;;;9.80;99.90;;;;;;4992099;28;20343;-45
2023/01/07 09:12:22;;;;;;;12.38;2.80;;;9.80;99.90;;;;;;4992050;28;20037;-45
2023/01/07 09:14:47;;;;;;;12.65;2.65;;;9.80;99.90;;;;;;4991883;28;20105;-47
2023/01/07 09:17:13;;;;;;;10.50;2.95;;;9.80;99.90;;;;;;4991832;28;20393;-45
2023/01/07 09:19:39;;;;;;;13.05;3.00;;;9.80;99.90;;;;;;4991577;28;20040;-49
2023/01/07 09:22:04;;;;;;;15.80;3.45;;;9.80;99.90;;;;;;4991619;28;20034;-46
2023/01/07 09:24:30;;;;;;;8.13;2.83;;;9.80;99.90;;;;;;4991886;28;20018;-48
2023/01/07 09:26:55;;;;;;;17.05;3.22;;;9.70;99.90;;;;;;4990679;28;20026;-54
2023/01/07 09:29:21;;;;;;;10.88;3.05;;;9.70;99.90;;;;;;4991691;28;20462;-50
2023/01/07 09:31:47;;;;;;;13.70;3.25;;;9.80;99.90;;;;;;4991576;28;20041;-46
2023/01/07 09:34:12;;;;;;;17.00;2.90;;;9.80;99.90;;;;;;4991657;28;20466;-46
2023/01/07 09:36:38;;;;;;;16.80;3.97;;;9.80;99.90;;;;;;4991584;28;20027;-46
2023/01/07 09:39:04;;;;;;;10.73;3.60;;;9.80;99.90;;;;;;4991864;28;20025;-45
2023/01/07 09:41:48;;;;;;;14.57;2.63;;;9.80;99.90;;;;;;4992400;28;20035;-45
2023/01/07 09:44:46;;;;;;;12.70;3.47;;;9.80;99.90;;;;;;4992235;28;20023;-45
2023/01/07 09:47:15;;;;;;;7.93;2.67;;;9.70;99.90;;;;;;4991777;28;20033;-50
2023/01/07 09:49:43;;;;;;;12.30;3.67;;;9.70;99.90;;;;;;4991868;28;20026;-46
2023/01/07 09:52:19;;;;;;;14.60;3.40;;;9.70;99.90;;;;;;4992148;28;20034;-44
2023/01/07 09:54:49;;;;;;;11.45;2.83;;;9.70;99.90;;;;;;4991637;28;20074;-44
2023/01/07 09:57:16;;;;;;;13.15;3.40;;;9.70;99.90;;;;;;4974462;28;20046;-45
2023/01/07 09:59:43;;;;;;;16.17;3.20;;;9.70;99.90;;;;;;4991520;28;20018;-45
2023/01/07 10:02:49;;;;;;;16.17;3.03;;;9.60;99.90;;;;;;4991320;28;20038;-47
2023/01/07 10:05:52;;;;;;;18.50;3.63;;;9.60;99.90;;;;;;4981477;28;20033;-46
2023/01/07 10:08:38;;;;;;;13.20;3.03;;;9.60;99.90;;;;;;4947863;28;20477;-47
2023/01/07 10:11:19;;;;;;;12.57;3.70;;;9.60;99.90;;;;;;4991127;28;20119;-53
2023/01/07 10:13:53;;;;;;;14.70;3.50;;;9.60;99.90;;;;;;4991125;28;20022;-48
2023/01/07 10:16:48;;;;;;;21.85;4.72;;;9.60;99.90;;;;;;4973637;28;20477;-50
2023/01/07 10:19:24;;;;;;;19.13;4.15;;;9.60;99.90;;;;;;4991195;28;20486;-50
2023/01/07 10:21:55;;;;;;;15.23;3.65;;;9.60;99.90;;;;;;4991177;28;20228;-50
2023/01/07 10:24:42;;;;;;;14.77;4.70;;;9.70;99.90;;;;;;4991094;28;20109;-48
2023/01/07 10:27:11;;;;;;;12.88;3.60;;;9.70;99.90;;;;;;4990724;28;20057;-52
2023/01/07 10:29:47;;;;;;;10.63;3.65;;;9.70;99.90;;;;;;4973565;28;20093;-54
2023/01/07 10:32:15;;;;;;;14.75;4.22;;;9.80;99.90;;;;;;4990970;28;20026;-51
2023/01/07 10:34:49;;;;;;;18.27;4.50;;;9.80;99.90;;;;;;4990947;28;20406;-48
2023/01/07 10:37:25;;;;;;;18.42;4.50;;;9.90;99.90;;;;;;4990750;28;20023;-48
2023/01/07 10:40:22;;;;;;;15.13;3.80;;;9.90;99.90;;;;;;4993780;28;20062;-48
2023/01/07 10:43:06;;;;;;;14.95;3.42;;;9.90;99.90;;;;;;4982148;28;20057;-54
2023/01/07 10:46:12;;;;;;;15.35;3.95;;;9.90;99.90;;;;;;4995008;28;20479;-53
2023/01/07 10:49:00;;;;;;;15.93;3.72;;;10.00;99.90;;;;;;4994686;28;20019;-50
2023/01/07 10:51:53;;;;;;;11.00;3.30;;;10.00;99.90;;;;;;4983038;28;20128;-48
2023/01/07 10:54:43;;;;;;;11.55;3.25;;;10.00;99.90;;;;;;4994454;28;20526;-47
2023/01/07 10:57:18;;;;;;;14.23;3.80;;;10.00;99.90;;;;;;4976872;28;20026;-45
2023/01/07 10:59:48;;;;;;;9.20;3.38;;;10.00;99.90;;;;;;4994398;28;20429;-52
2023/01/07 11:02:17;;;;;;;10.38;3.55;;;10.00;99.90;;;;;;4994602;28;20053;-46
2023/01/07 11:04:43;;;;;;;12.13;3.75;;;10.00;99.90;;;;;;4994318;28;20093;-46
2023/01/07 11:07:45;;;;;;;13.68;3.65;;;10.00;99.90;;;;;;4994337;28;20073;-49
2023/01/07 11:10:16;;;;;;;14.77;3.92;;;10.00;99.90;;;;;;4982889;28;20050;-46
2023/01/07 11:12:48;;;;;;;16.90;3.88;;;10.00;99.90;;;;;;4994329;28;20113;-50
2023/01/07 11:15:57;;;;;;;15.48;3.30;;;10.00;99.90;;;;;;4994183;28;20533;-46
2023/01/07 11:18:44;;;;;;;16.03;3.57;;;10.00;99.90;;;;;;4915157;29;20484;-47
2023/01/07 11:21:10;;;;;;;14.35;3.45;;;10.00;99.90;;;;;;4913203;29;20393;-53
2023/01/07 11:23:40;;;;;;;16.88;3.90;;;10.00;99.90;;;;;;4961054;28;20044;-47
2023/01/07 11:26:17;;;;;;;14.43;3.80;;;10.00;99.90;;;;;;4992703;28;20030;-49
2023/01/07 11:28:55;;;;;;;16.92;3.97;;;10.00;99.90;;;;;;4992720;28;20053;-48
2023/01/07 11:31:41;;;;;;;15.10;3.80;;;10.10;99.90;;;;;;4988927;28;20031;-46
2023/01/07 11:34:18;;;;;;;14.38;3.25;;;10.20;99.90;;;;;;4993030;28;20021;-52
2023/01/07 11:36:44;;;;;;;18.95;4.25;;;10.20;99.90;;;;;;4993014;28;20030;-47
2023/01/07 11:39:26;;;;;;;14.70;4.13;;;10.20;99.90;;;;;;4993374;28;20034;-45
2023/01/07 11:42:37;;;;;;;16.50;3.28;;;10.20;99.90;;;;;;4991682;28;20038;-46
2023/01/07 11:44:45;;;;;;;16.92;3.72;;;10.20;99.90;;;;;;4991735;28;20038;-48
2023/01/07 11:47:16;;;;;;;12.70;3.22;;;10.30;99.90;;;;;;4988126;28;20038;-45
2023/01/07 11:49:44;;;;;;;14.27;3.55;;;10.40;99.90;;;;;;4990118;28;20026;-47
2023/01/07 11:52:20;;;;;;;16.58;3.70;;;10.40;99.90;;;;;;4988834;28;20670;-49
2023/01/07 11:54:52;;;;;;;11.15;2.85;;;10.40;99.90;;;;;;4990690;28;20040;-49
2023/01/07 11:57:25;;;;;;;15.57;3.63;;;10.50;99.90;;;;;;4992240;28;20065;-48
2023/01/07 12:00:14;;;;;;;14.07;3.55;;;10.50;99.90;;;;;;4991200;28;20022;-47
2023/01/07 12:02:40;;;;;;;11.48;3.88;;;10.60;99.90;;;;;;4986314;28;20045;-48
2023/01/07 12:05:23;;;;;;;15.30;3.97;;;10.60;99.90;;;;;;4994004;28;20436;-53
2023/01/07 12:07:50;;;;;;;13.07;3.30;;;10.60;99.90;;;;;;4985638;28;20022;-46
2023/01/07 12:10:35;;;;;;;19.58;4.00;;;10.60;99.90;;;;;;4966637;28;20029;-45
2023/01/07 12:13:04;;;;;;;12.77;3.67;;;10.50;99.90;;;;;;4993348;28;20133;-56
2023/01/07 12:15:33;;;;;;;18.48;3.63;;;10.50;99.90;;;;;;4989608;28;20015;-49
2023/01/07 12:18:07;;;;;;;9.63;3.53;;;10.50;99.90;;;;;;4986948;28;20037;-52
2023/01/07 12:21:11;;;;;;;17.83;3.70;;;10.50;99.90;;;;;;4988543;28;20048;-48
2023/01/07 12:23:56;;;;;;;12.68;3.00;;;10.50;99.90;;;;;;4915525;29;20119;-49
2023/01/07 12:27:01;;;;;;;12.10;3.22;;;10.50;99.90;;;;;;4914494;29;20036;-49
2023/01/07 12:29:46;;;;;;;15.00;3.35;;;10.50;99.90;;;;;;4982169;28;20140;-48
2023/01/07 12:32:33;;;;;;;21.00;3.65;;;10.40;99.90;;;;;;4992594;28;20019;-46
2023/01/07 12:35:13;;;;;;;12.00;3.28;;;10.40;99.90;;;;;;4992253;28;20106;-50
2023/01/07 12:38:10;;;;;;;12.52;3.05;;;10.50;99.90;;;;;;4978816;28;20030;-46
2023/01/07 12:40:40;;;;;;;12.80;3.38;;;10.60;99.90;;;;;;4921326;28;20047;-47
2023/01/07 12:43:24;;;;;;;18.98;3.72;;;10.60;99.90;;;;;;4989567;28;20474;-49
2023/01/07 12:45:59;;;;;;;11.70;3.58;;;10.70;99.90;;;;;;4989552;28;20050;-48
2023/01/07 12:48:52;;;;;;;16.20;3.45;;;10.70;99.90;;;;;;4988814;28;20073;-45
2023/01/07 12:51:39;;;;;;;10.32;3.40;;;10.70;99.90;;;;;;4980268;28;20027;-46
2023/01/07 12:54:21;;;;;;;12.40;3.13;;;10.70;99.90;;;;;;4984470;28;20038;-46
2023/01/07 12:56:58;;;;;;;10.00;3.00;;;10.70;99.90;;;;;;4982302;28;20014;-45
2023/01/07 12:59:32;;;;;;;13.75;3.35;;;10.80;99.90;;;;;;4991466;28;20034;-51
2023/01/07 13:02:25;;;;;;;7.97;2.72;;;10.80;99.90;;;;;;4991092;28;20074;-48
2023/01/07 13:05:04;;;;;;;8.60;2.92;;;10.90;99.90;;;;;;4966890;28;20073;-48
2023/01/07 13:07:46;;;;;;;16.38;3.38;;;10.90;99.90;;;;;;4984047;28;20033;-50